sensor_id;sensor_type;location;lat;lon;timestamp;P1;durP1;ratioP1;P2;durP2;ratioP2
5519;SDS011;2782;52.362;10.012;2022-12-18T00:00:09;12.00;;;5.10;;
5519;SDS011;2782;52.362;10.012;2022-12-18T00:01:15;7.95;;;4.47;;
5519;SDS011;2782;52.362;10.012;2022-12-18T00:02:17;7.93;;;4.28;;
5519;SDS011;2782;52.362;10.012;2022-12-18T00:03:19;10.57;;;5.45;;
5519;SDS011;2782;52.362;10.012;2022-12-18T00:04:20;9.23;;;5.20;;
5519;SDS011;2782;52.362;10.012;2022-12-18T00:05:24;11.10;;;5.40;;
5519;SDS011;2782;52.362;10.012;2022-12-18T00:06:25;11.00;;;4.90;;
5519;SDS011;2782;52.362;10.012;2022-12-18T00:07:29;7.47;;;4.45;;
5519;SDS011;2782;52.362;10.012;2022-12-18T00:08:30;17.38;;;5.13;;
5519;SDS011;2782;52.362;10.012;2022-12-18T00:09:32;12.57;;;4.65;;
5519;SDS011;2782;52.362;10.012;2022-12-18T00:10:32;16.37;;;5.03;;
5519;SDS011;2782;52.362;10.012;2022-12-18T00:11:34;12.88;;;5.75;;
5519;SDS011;2782;52.362;10.012;2022-12-18T00:12:35;7.87;;;4.50;;
5519;SDS011;2782;52.362;10.012;2022-12-18T00:13:36;9.52;;;5.20;;
5519;SDS011;2782;52.362;10.012;2022-12-18T00:14:37;10.43;;;4.27;;
5519;SDS011;2782;52.362;10.012;2022-12-18T00:15:39;6.70;;;4.60;;
5519;SDS011;2782;52.362;10.012;2022-12-18T00:16:42;9.40;;;4.37;;
5519;SDS011;2782;52.362;10.012;2022-12-18T00:17:46;9.25;;;4.72;;
5519;SDS011;2782;52.362;10.012;2022-12-18T00:18:47;9.70;;;4.57;;
5519;SDS011;2782;52.362;10.012;2022-12-18T00:19:49;7.13;;;4.32;;
5519;SDS011;2782;52.362;10.012;2022-12-18T00:20:50;9.82;;;4.25;;
5519;SDS011;2782;52.362;10.012;2022-12-18T00:21:51;7.77;;;4.47;;
5519;SDS011;2782;52.362;10.012;2022-12-18T00:22:54;12.18;;;5.15;;
5519;SDS011;2782;52.362;10.012;2022-12-18T00:23:55;8.02;;;4.85;;
5519;SDS011;2782;52.362;10.012;2022-12-18T00:24:58;6.13;;;4.20;;
5519;SDS011;2782;52.362;10.012;2022-12-18T00:25:58;9.03;;;4.87;;
5519;SDS011;2782;52.362;10.012;2022-12-18T00:27:01;9.98;;;4.75;;
5519;SDS011;2782;52.362;10.012;2022-12-18T00:28:03;9.93;;;4.18;;
5519;SDS011;2782;52.362;10.012;2022-12-18T00:29:05;10.40;;;5.13;;
5519;SDS011;2782;52.362;10.012;2022-12-18T00:30:08;8.43;;;4.10;;
5519;SDS011;2782;52.362;10.012;2022-12-18T00:31:10;11.10;;;4.35;;
5519;SDS011;2782;52.362;10.012;2022-12-18T00:32:13;8.93;;;4.30;;
5519;SDS011;2782;52.362;10.012;2022-12-18T00:33:15;5.57;;;3.63;;
5519;SDS011;2782;52.362;10.012;2022-12-18T00:34:15;7.07;;;3.50;;
5519;SDS011;2782;52.362;10.012;2022-12-18T00:35:19;7.10;;;3.80;;
5519;SDS011;2782;52.362;10.012;2022-12-18T00:36:20;9.23;;;4.70;;
5519;SDS011;2782;52.362;10.012;2022-12-18T00:37:23;5.85;;;4.20;;
5519;SDS011;2782;52.362;10.012;2022-12-18T00:38:25;4.13;;;3.47;;
5519;SDS011;2782;52.362;10.012;2022-12-18T00:39:26;8.23;;;4.15;;
5519;SDS011;2782;52.362;10.012;2022-12-18T00:40:27;19.60;;;5.10;;
5519;SDS011;2782;52.362;10.012;2022-12-18T00:41:29;9.73;;;4.07;;
5519;SDS011;2782;52.362;10.012;2022-12-18T00:42:48;8.43;;;3.20;;
5519;SDS011;2782;52.362;10.012;2022-12-18T00:43:58;10.15;;;4.60;;
5519;SDS011;2782;52.362;10.012;2022-12-18T00:44:59;10.50;;;4.27;;
5519;SDS011;2782;52.362;10.012;2022-12-18T00:46:00;8.50;;;3.53;;
5519;SDS011;2782;52.362;10.012;2022-12-18T00:47:01;6.50;;;3.87;;
5519;SDS011;2782;52.362;10.012;2022-12-18T00:48:03;5.32;;;3.50;;
5519;SDS011;2782;52.362;10.012;2022-12-18T00:49:04;6.50;;;3.83;;
5519;SDS011;2782;52.362;10.012;2022-12-18T00:50:08;9.30;;;3.42;;
5519;SDS011;2782;52.362;10.012;2022-12-18T00:51:09;8.25;;;4.28;;
5519;SDS011;2782;52.362;10.012;2022-12-18T00:52:11;7.22;;;4.30;;
5519;SDS011;2782;52.362;10.012;2022-12-18T00:53:12;7.43;;;3.93;;
5519;SDS011;2782;52.362;10.012;2022-12-18T00:54:15;6.28;;;3.65;;
5519;SDS011;2782;52.362;10.012;2022-12-18T00:55:16;5.80;;;3.83;;
5519;SDS011;2782;52.362;10.012;2022-12-18T00:56:18;9.50;;;3.90;;
5519;SDS011;2782;52.362;10.012;2022-12-18T00:57:20;6.90;;;3.55;;
5519;SDS011;2782;52.362;10.012;2022-12-18T00:58:22;9.32;;;3.75;;
5519;SDS011;2782;52.362;10.012;2022-12-18T00:59:22;8.10;;;3.88;;
5519;SDS011;2782;52.362;10.012;2022-12-18T01:00:24;8.13;;;3.38;;
5519;SDS011;2782;52.362;10.012;2022-12-18T01:01:25;7.30;;;3.30;;
5519;SDS011;2782;52.362;10.012;2022-12-18T01:02:27;8.57;;;4.00;;
5519;SDS011;2782;52.362;10.012;2022-12-18T01:03:28;5.00;;;3.20;;
5519;SDS011;2782;52.362;10.012;2022-12-18T01:04:30;5.57;;;3.65;;
5519;SDS011;2782;52.362;10.012;2022-12-18T01:05:32;7.93;;;3.30;;
5519;SDS011;2782;52.362;10.012;2022-12-18T01:06:34;6.45;;;3.40;;
5519;SDS011;2782;52.362;10.012;2022-12-18T01:07:35;6.00;;;3.40;;
5519;SDS011;2782;52.362;10.012;2022-12-18T01:08:37;6.40;;;3.75;;
5519;SDS011;2782;52.362;10.012;2022-12-18T01:09:41;6.63;;;3.42;;
5519;SDS011;2782;52.362;10.012;2022-12-18T01:10:45;9.27;;;3.90;;
5519;SDS011;2782;52.362;10.012;2022-12-18T01:11:46;6.40;;;3.63;;
5519;SDS011;2782;52.362;10.012;2022-12-18T01:12:48;5.15;;;3.78;;
5519;SDS011;2782;52.362;10.012;2022-12-18T01:13:49;5.13;;;3.27;;
5519;SDS011;2782;52.362;10.012;2022-12-18T01:14:52;4.50;;;3.55;;
5519;SDS011;2782;52.362;10.012;2022-12-18T01:15:53;7.28;;;3.40;;
5519;SDS011;2782;52.362;10.012;2022-12-18T01:16:55;6.75;;;3.40;;
5519;SDS011;2782;52.362;10.012;2022-12-18T01:17:55;9.20;;;3.10;;
5519;SDS011;2782;52.362;10.012;2022-12-18T01:18:57;7.65;;;3.38;;
5519;SDS011;2782;52.362;10.012;2022-12-18T01:19:58;5.97;;;3.30;;
5519;SDS011;2782;52.362;10.012;2022-12-18T01:21:00;5.47;;;3.13;;
5519;SDS011;2782;52.362;10.012;2022-12-18T01:22:05;5.28;;;3.30;;
5519;SDS011;2782;52.362;10.012;2022-12-18T01:23:07;7.22;;;3.30;;
5519;SDS011;2782;52.362;10.012;2022-12-18T01:24:09;4.13;;;3.07;;
5519;SDS011;2782;52.362;10.012;2022-12-18T01:25:13;6.43;;;3.55;;
5519;SDS011;2782;52.362;10.012;2022-12-18T01:26:14;4.45;;;3.10;;
5519;SDS011;2782;52.362;10.012;2022-12-18T01:27:17;4.88;;;3.50;;
5519;SDS011;2782;52.362;10.012;2022-12-18T01:28:18;9.70;;;2.93;;
5519;SDS011;2782;52.362;10.012;2022-12-18T01:29:20;6.38;;;3.75;;
5519;SDS011;2782;52.362;10.012;2022-12-18T01:30:20;5.90;;;3.03;;
5519;SDS011;2782;52.362;10.012;2022-12-18T01:31:23;7.15;;;3.35;;
5519;SDS011;2782;52.362;10.012;2022-12-18T01:32:25;5.13;;;3.17;;
5519;SDS011;2782;52.362;10.012;2022-12-18T01:33:30;5.22;;;3.15;;
5519;SDS011;2782;52.362;10.012;2022-12-18T01:34:31;4.40;;;3.10;;
5519;SDS011;2782;52.362;10.012;2022-12-18T01:35:39;4.15;;;2.97;;
5519;SDS011;2782;52.362;10.012;2022-12-18T01:36:40;6.72;;;3.38;;
5519;SDS011;2782;52.362;10.012;2022-12-18T01:37:42;3.70;;;2.97;;
5519;SDS011;2782;52.362;10.012;2022-12-18T01:38:44;9.30;;;2.90;;
5519;SDS011;2782;52.362;10.012;2022-12-18T01:39:46;3.95;;;2.53;;
5519;SDS011;2782;52.362;10.012;2022-12-18T01:40:48;3.63;;;2.90;;
5519;SDS011;2782;52.362;10.012;2022-12-18T01:41:50;4.40;;;3.03;;
5519;SDS011;2782;52.362;10.012;2022-12-18T01:43:02;4.70;;;3.03;;
5519;SDS011;2782;52.362;10.012;2022-12-18T01:45:39;5.07;;;2.83;;
5519;SDS011;2782;52.362;10.012;2022-12-18T01:46:41;4.85;;;3.22;;
5519;SDS011;2782;52.362;10.012;2022-12-18T01:47:42;3.35;;;2.72;;
5519;SDS011;2782;52.362;10.012;2022-12-18T01:48:46;3.40;;;2.75;;
5519;SDS011;2782;52.362;10.012;2022-12-18T01:49:50;3.63;;;2.88;;
5519;SDS011;2782;52.362;10.012;2022-12-18T01:50:51;3.55;;;3.03;;
5519;SDS011;2782;52.362;10.012;2022-12-18T01:51:53;5.65;;;2.80;;
5519;SDS011;2782;52.362;10.012;2022-12-18T01:52:55;4.30;;;2.80;;
5519;SDS011;2782;52.362;10.012;2022-12-18T01:54:00;3.58;;;2.63;;
5519;SDS011;2782;52.362;10.012;2022-12-18T01:55:02;5.77;;;3.23;;
5519;SDS011;2782;52.362;10.012;2022-12-18T01:56:07;5.05;;;3.13;;
5519;SDS011;2782;52.362;10.012;2022-12-18T01:57:12;4.88;;;3.15;;
5519;SDS011;2782;52.362;10.012;2022-12-18T01:58:16;5.07;;;3.17;;
5519;SDS011;2782;52.362;10.012;2022-12-18T01:59:18;3.08;;;2.78;;
5519;SDS011;2782;52.362;10.012;2022-12-18T02:00:20;4.68;;;3.00;;
5519;SDS011;2782;52.362;10.012;2022-12-18T02:03:27;4.20;;;3.38;;
5519;SDS011;2782;52.362;10.012;2022-12-18T02:04:29;4.80;;;2.65;;
5519;SDS011;2782;52.362;10.012;2022-12-18T02:05:34;7.17;;;3.07;;
5519;SDS011;2782;52.362;10.012;2022-12-18T02:06:48;4.50;;;3.22;;
5519;SDS011;2782;52.362;10.012;2022-12-18T02:07:57;4.72;;;3.50;;
5519;SDS011;2782;52.362;10.012;2022-12-18T02:09:07;3.30;;;2.85;;
5519;SDS011;2782;52.362;10.012;2022-12-18T02:10:13;4.55;;;2.65;;
5519;SDS011;2782;52.362;10.012;2022-12-18T02:11:24;7.88;;;3.05;;
5519;SDS011;2782;52.362;10.012;2022-12-18T02:12:34;4.55;;;3.10;;
5519;SDS011;2782;52.362;10.012;2022-12-18T02:13:44;4.00;;;3.05;;
5519;SDS011;2782;52.362;10.012;2022-12-18T02:14:53;3.30;;;2.33;;
5519;SDS011;2782;52.362;10.012;2022-12-18T02:16:00;4.32;;;2.72;;
5519;SDS011;2782;52.362;10.012;2022-12-18T02:17:10;3.22;;;2.60;;
5519;SDS011;2782;52.362;10.012;2022-12-18T02:18:18;3.67;;;2.92;;
5519;SDS011;2782;52.362;10.012;2022-12-18T02:19:37;3.40;;;2.45;;
5519;SDS011;2782;52.362;10.012;2022-12-18T02:20:48;5.90;;;2.65;;
5519;SDS011;2782;52.362;10.012;2022-12-18T02:21:56;4.22;;;2.60;;
5519;SDS011;2782;52.362;10.012;2022-12-18T02:23:10;3.65;;;2.53;;
5519;SDS011;2782;52.362;10.012;2022-12-18T02:24:24;3.97;;;2.60;;
5519;SDS011;2782;52.362;10.012;2022-12-18T02:25:40;4.07;;;2.97;;
5519;SDS011;2782;52.362;10.012;2022-12-18T02:27:02;4.68;;;2.60;;
5519;SDS011;2782;52.362;10.012;2022-12-18T02:28:06;2.83;;;2.42;;
5519;SDS011;2782;52.362;10.012;2022-12-18T02:29:12;6.40;;;3.00;;
5519;SDS011;2782;52.362;10.012;2022-12-18T02:30:16;2.72;;;2.42;;
5519;SDS011;2782;52.362;10.012;2022-12-18T02:31:19;3.92;;;2.80;;
5519;SDS011;2782;52.362;10.012;2022-12-18T02:32:25;3.53;;;2.80;;
5519;SDS011;2782;52.362;10.012;2022-12-18T02:33:28;4.05;;;2.50;;
5519;SDS011;2782;52.362;10.012;2022-12-18T02:34:32;2.67;;;2.10;;
5519;SDS011;2782;52.362;10.012;2022-12-18T02:35:37;3.05;;;2.30;;
5519;SDS011;2782;52.362;10.012;2022-12-18T02:36:41;3.55;;;3.00;;
5519;SDS011;2782;52.362;10.012;2022-12-18T02:37:44;3.13;;;2.67;;
5519;SDS011;2782;52.362;10.012;2022-12-18T02:38:47;2.45;;;2.05;;
5519;SDS011;2782;52.362;10.012;2022-12-18T02:39:50;3.92;;;2.90;;
5519;SDS011;2782;52.362;10.012;2022-12-18T02:40:55;5.07;;;2.72;;
5519;SDS011;2782;52.362;10.012;2022-12-18T02:41:58;4.75;;;3.20;;
5519;SDS011;2782;52.362;10.012;2022-12-18T02:43:03;3.58;;;2.28;;
5519;SDS011;2782;52.362;10.012;2022-12-18T02:44:08;3.08;;;2.28;;
5519;SDS011;2782;52.362;10.012;2022-12-18T02:45:11;4.00;;;2.50;;
5519;SDS011;2782;52.362;10.012;2022-12-18T02:46:25;3.43;;;2.53;;
5519;SDS011;2782;52.362;10.012;2022-12-18T02:47:31;2.72;;;2.45;;
5519;SDS011;2782;52.362;10.012;2022-12-18T02:48:36;4.10;;;2.88;;
5519;SDS011;2782;52.362;10.012;2022-12-18T02:49:40;4.07;;;2.92;;
5519;SDS011;2782;52.362;10.012;2022-12-18T02:50:50;3.40;;;2.75;;
5519;SDS011;2782;52.362;10.012;2022-12-18T02:52:00;3.83;;;2.47;;
5519;SDS011;2782;52.362;10.012;2022-12-18T02:53:07;3.15;;;2.25;;
5519;SDS011;2782;52.362;10.012;2022-12-18T02:54:17;2.85;;;2.55;;
5519;SDS011;2782;52.362;10.012;2022-12-18T02:55:28;5.35;;;2.47;;
5519;SDS011;2782;52.362;10.012;2022-12-18T02:56:47;2.70;;;2.47;;
5519;SDS011;2782;52.362;10.012;2022-12-18T02:57:54;3.70;;;2.75;;
5519;SDS011;2782;52.362;10.012;2022-12-18T02:58:58;4.65;;;2.60;;
5519;SDS011;2782;52.362;10.012;2022-12-18T03:00:03;2.45;;;2.03;;
5519;SDS011;2782;52.362;10.012;2022-12-18T03:01:09;3.90;;;2.53;;
5519;SDS011;2782;52.362;10.012;2022-12-18T03:02:17;5.72;;;2.63;;
5519;SDS011;2782;52.362;10.012;2022-12-18T03:03:28;3.05;;;2.45;;
5519;SDS011;2782;52.362;10.012;2022-12-18T03:04:34;2.97;;;2.40;;
5519;SDS011;2782;52.362;10.012;2022-12-18T03:05:41;3.13;;;2.53;;
5519;SDS011;2782;52.362;10.012;2022-12-18T03:06:48;2.78;;;2.53;;
5519;SDS011;2782;52.362;10.012;2022-12-18T03:07:53;3.80;;;2.10;;
5519;SDS011;2782;52.362;10.012;2022-12-18T03:08:58;3.10;;;2.47;;
5519;SDS011;2782;52.362;10.012;2022-12-18T03:10:03;2.60;;;2.35;;
5519;SDS011;2782;52.362;10.012;2022-12-18T03:11:08;2.30;;;2.10;;
5519;SDS011;2782;52.362;10.012;2022-12-18T03:12:13;2.20;;;2.00;;
5519;SDS011;2782;52.362;10.012;2022-12-18T03:13:27;2.13;;;2.00;;
5519;SDS011;2782;52.362;10.012;2022-12-18T03:14:32;3.40;;;2.47;;
5519;SDS011;2782;52.362;10.012;2022-12-18T03:15:37;5.47;;;2.67;;
5519;SDS011;2782;52.362;10.012;2022-12-18T03:16:42;2.88;;;2.30;;
5519;SDS011;2782;52.362;10.012;2022-12-18T03:17:49;5.00;;;2.53;;
5519;SDS011;2782;52.362;10.012;2022-12-18T03:18:54;2.58;;;2.38;;
5519;SDS011;2782;52.362;10.012;2022-12-18T03:20:01;2.83;;;2.20;;
5519;SDS011;2782;52.362;10.012;2022-12-18T03:21:09;2.70;;;2.50;;
5519;SDS011;2782;52.362;10.012;2022-12-18T03:22:16;2.13;;;1.92;;
5519;SDS011;2782;52.362;10.012;2022-12-18T03:23:18;2.38;;;2.17;;
5519;SDS011;2782;52.362;10.012;2022-12-18T03:24:22;2.45;;;2.03;;
5519;SDS011;2782;52.362;10.012;2022-12-18T03:25:25;2.30;;;2.10;;
5519;SDS011;2782;52.362;10.012;2022-12-18T03:26:28;2.10;;;1.90;;
5519;SDS011;2782;52.362;10.012;2022-12-18T03:27:31;2.63;;;1.92;;
5519;SDS011;2782;52.362;10.012;2022-12-18T03:28:38;3.88;;;2.72;;
5519;SDS011;2782;52.362;10.012;2022-12-18T03:29:45;3.17;;;2.28;;
5519;SDS011;2782;52.362;10.012;2022-12-18T03:30:51;4.00;;;2.20;;
5519;SDS011;2782;52.362;10.012;2022-12-18T03:31:58;2.72;;;2.42;;
5519;SDS011;2782;52.362;10.012;2022-12-18T03:33:05;2.83;;;1.92;;
5519;SDS011;2782;52.362;10.012;2022-12-18T03:34:12;4.15;;;2.50;;
5519;SDS011;2782;52.362;10.012;2022-12-18T03:35:18;2.47;;;2.28;;
5519;SDS011;2782;52.362;10.012;2022-12-18T03:36:23;2.85;;;2.40;;
5519;SDS011;2782;52.362;10.012;2022-12-18T03:37:24;2.22;;;1.80;;
5519;SDS011;2782;52.362;10.012;2022-12-18T03:38:26;2.83;;;2.17;;
5519;SDS011;2782;52.362;10.012;2022-12-18T03:39:27;2.73;;;1.87;;
5519;SDS011;2782;52.362;10.012;2022-12-18T03:40:29;2.58;;;2.10;;
5519;SDS011;2782;52.362;10.012;2022-12-18T03:41:41;3.55;;;2.65;;
5519;SDS011;2782;52.362;10.012;2022-12-18T03:42:46;3.40;;;2.30;;
5519;SDS011;2782;52.362;10.012;2022-12-18T03:43:52;2.05;;;1.95;;
5519;SDS011;2782;52.362;10.012;2022-12-18T03:45:00;2.38;;;1.75;;
5519;SDS011;2782;52.362;10.012;2022-12-18T03:46:05;2.38;;;2.17;;
5519;SDS011;2782;52.362;10.012;2022-12-18T03:47:12;5.03;;;2.50;;
5519;SDS011;2782;52.362;10.012;2022-12-18T03:48:17;2.10;;;1.90;;
5519;SDS011;2782;52.362;10.012;2022-12-18T03:49:25;2.45;;;2.20;;
5519;SDS011;2782;52.362;10.012;2022-12-18T03:50:37;2.30;;;2.10;;
5519;SDS011;2782;52.362;10.012;2022-12-18T03:51:45;1.90;;;1.70;;
5519;SDS011;2782;52.362;10.012;2022-12-18T03:52:50;3.20;;;2.08;;
5519;SDS011;2782;52.362;10.012;2022-12-18T03:53:57;2.38;;;1.90;;
5519;SDS011;2782;52.362;10.012;2022-12-18T03:55:00;2.42;;;1.95;;
5519;SDS011;2782;52.362;10.012;2022-12-18T03:56:03;3.17;;;2.30;;
5519;SDS011;2782;52.362;10.012;2022-12-18T03:57:06;2.47;;;2.28;;
5519;SDS011;2782;52.362;10.012;2022-12-18T03:58:11;2.45;;;1.88;;
5519;SDS011;2782;52.362;10.012;2022-12-18T03:59:16;3.17;;;2.60;;
5519;SDS011;2782;52.362;10.012;2022-12-18T04:00:20;2.28;;;2.03;;
5519;SDS011;2782;52.362;10.012;2022-12-18T04:01:22;2.50;;;2.00;;
5519;SDS011;2782;52.362;10.012;2022-12-18T04:02:29;2.20;;;1.90;;
5519;SDS011;2782;52.362;10.012;2022-12-18T04:03:32;3.97;;;2.17;;
5519;SDS011;2782;52.362;10.012;2022-12-18T04:04:36;2.60;;;2.03;;
5519;SDS011;2782;52.362;10.012;2022-12-18T04:05:39;2.90;;;1.90;;
5519;SDS011;2782;52.362;10.012;2022-12-18T04:06:44;2.17;;;1.73;;
5519;SDS011;2782;52.362;10.012;2022-12-18T04:07:47;2.60;;;2.25;;
5519;SDS011;2782;52.362;10.012;2022-12-18T04:08:51;2.20;;;1.95;;
5519;SDS011;2782;52.362;10.012;2022-12-18T04:09:53;2.10;;;1.60;;
5519;SDS011;2782;52.362;10.012;2022-12-18T04:10:57;2.00;;;1.80;;
5519;SDS011;2782;52.362;10.012;2022-12-18T04:11:58;2.73;;;2.30;;
5519;SDS011;2782;52.362;10.012;2022-12-18T04:12:59;3.20;;;1.90;;
5519;SDS011;2782;52.362;10.012;2022-12-18T04:14:00;2.30;;;2.10;;
5519;SDS011;2782;52.362;10.012;2022-12-18T04:15:03;2.90;;;2.30;;
5519;SDS011;2782;52.362;10.012;2022-12-18T04:16:05;3.15;;;2.00;;
5519;SDS011;2782;52.362;10.012;2022-12-18T04:17:07;2.88;;;2.20;;
5519;SDS011;2782;52.362;10.012;2022-12-18T04:18:08;1.80;;;1.67;;
5519;SDS011;2782;52.362;10.012;2022-12-18T04:19:10;2.78;;;2.20;;
5519;SDS011;2782;52.362;10.012;2022-12-18T04:20:11;2.43;;;2.20;;
5519;SDS011;2782;52.362;10.012;2022-12-18T04:21:12;3.53;;;2.10;;
5519;SDS011;2782;52.362;10.012;2022-12-18T04:22:13;3.03;;;1.70;;
5519;SDS011;2782;52.362;10.012;2022-12-18T04:23:15;2.65;;;2.20;;
5519;SDS011;2782;52.362;10.012;2022-12-18T04:24:15;2.67;;;1.80;;
5519;SDS011;2782;52.362;10.012;2022-12-18T04:25:17;1.83;;;1.60;;
5519;SDS011;2782;52.362;10.012;2022-12-18T04:26:18;2.30;;;2.10;;
5519;SDS011;2782;52.362;10.012;2022-12-18T04:27:20;1.60;;;1.50;;
5519;SDS011;2782;52.362;10.012;2022-12-18T04:28:20;7.70;;;2.60;;
5519;SDS011;2782;52.362;10.012;2022-12-18T04:29:22;3.53;;;2.42;;
5519;SDS011;2782;52.362;10.012;2022-12-18T04:30:24;2.00;;;1.80;;
5519;SDS011;2782;52.362;10.012;2022-12-18T04:31:26;2.00;;;1.90;;
5519;SDS011;2782;52.362;10.012;2022-12-18T04:32:27;2.67;;;2.17;;
5519;SDS011;2782;52.362;10.012;2022-12-18T04:33:28;2.53;;;1.75;;
5519;SDS011;2782;52.362;10.012;2022-12-18T04:34:29;3.30;;;2.33;;
5519;SDS011;2782;52.362;10.012;2022-12-18T04:35:31;2.60;;;2.00;;
5519;SDS011;2782;52.362;10.012;2022-12-18T04:36:32;2.10;;;1.87;;
5519;SDS011;2782;52.362;10.012;2022-12-18T04:37:34;1.70;;;1.55;;
5519;SDS011;2782;52.362;10.012;2022-12-18T04:38:34;3.53;;;2.10;;
5519;SDS011;2782;52.362;10.012;2022-12-18T04:39:36;2.90;;;2.15;;
5519;SDS011;2782;52.362;10.012;2022-12-18T04:40:37;2.13;;;1.93;;
5519;SDS011;2782;52.362;10.012;2022-12-18T04:41:39;2.35;;;1.95;;
5519;SDS011;2782;52.362;10.012;2022-12-18T04:42:41;2.75;;;2.00;;
5519;SDS011;2782;52.362;10.012;2022-12-18T04:43:42;2.22;;;2.03;;
5519;SDS011;2782;52.362;10.012;2022-12-18T04:44:43;2.63;;;2.00;;
5519;SDS011;2782;52.362;10.012;2022-12-18T04:45:46;2.03;;;1.83;;
5519;SDS011;2782;52.362;10.012;2022-12-18T04:46:47;2.00;;;1.80;;
5519;SDS011;2782;52.362;10.012;2022-12-18T04:47:48;1.52;;;1.42;;
5519;SDS011;2782;52.362;10.012;2022-12-18T04:48:49;1.80;;;1.50;;
5519;SDS011;2782;52.362;10.012;2022-12-18T04:49:51;2.05;;;1.60;;
5519;SDS011;2782;52.362;10.012;2022-12-18T04:50:51;2.43;;;2.00;;
5519;SDS011;2782;52.362;10.012;2022-12-18T04:51:53;2.25;;;1.92;;
5519;SDS011;2782;52.362;10.012;2022-12-18T04:52:54;1.97;;;1.80;;
5519;SDS011;2782;52.362;10.012;2022-12-18T04:53:56;2.20;;;1.98;;
5519;SDS011;2782;52.362;10.012;2022-12-18T04:54:56;2.93;;;2.43;;
5519;SDS011;2782;52.362;10.012;2022-12-18T04:56:02;2.00;;;1.80;;
5519;SDS011;2782;52.362;10.012;2022-12-18T04:57:04;1.88;;;1.45;;
5519;SDS011;2782;52.362;10.012;2022-12-18T04:58:05;1.60;;;1.30;;
5519;SDS011;2782;52.362;10.012;2022-12-18T04:59:06;3.23;;;1.67;;
5519;SDS011;2782;52.362;10.012;2022-12-18T05:00:08;2.00;;;1.60;;
5519;SDS011;2782;52.362;10.012;2022-12-18T05:01:11;1.80;;;1.65;;
5519;SDS011;2782;52.362;10.012;2022-12-18T05:02:14;2.58;;;1.90;;
5519;SDS011;2782;52.362;10.012;2022-12-18T05:03:15;2.00;;;1.77;;
5519;SDS011;2782;52.362;10.012;2022-12-18T05:04:17;2.55;;;1.70;;
5519;SDS011;2782;52.362;10.012;2022-12-18T05:05:17;3.63;;;1.83;;
5519;SDS011;2782;52.362;10.012;2022-12-18T05:06:19;2.20;;;1.88;;
5519;SDS011;2782;52.362;10.012;2022-12-18T05:07:20;2.07;;;1.60;;
5519;SDS011;2782;52.362;10.012;2022-12-18T05:08:22;1.50;;;1.38;;
5519;SDS011;2782;52.362;10.012;2022-12-18T05:09:23;1.60;;;1.50;;
5519;SDS011;2782;52.362;10.012;2022-12-18T05:10:25;1.98;;;1.77;;
5519;SDS011;2782;52.362;10.012;2022-12-18T05:11:25;1.47;;;1.37;;
5519;SDS011;2782;52.362;10.012;2022-12-18T05:12:27;2.17;;;1.60;;
5519;SDS011;2782;52.362;10.012;2022-12-18T05:13:28;2.73;;;1.80;;
5519;SDS011;2782;52.362;10.012;2022-12-18T05:14:30;1.73;;;1.63;;
5519;SDS011;2782;52.362;10.012;2022-12-18T05:15:31;1.77;;;1.67;;
5519;SDS011;2782;52.362;10.012;2022-12-18T05:16:34;1.80;;;1.30;;
5519;SDS011;2782;52.362;10.012;2022-12-18T05:17:35;3.22;;;1.63;;
5519;SDS011;2782;52.362;10.012;2022-12-18T05:18:37;1.73;;;1.30;;
5519;SDS011;2782;52.362;10.012;2022-12-18T05:19:38;1.67;;;1.58;;
5519;SDS011;2782;52.362;10.012;2022-12-18T05:20:40;1.67;;;1.33;;
5519;SDS011;2782;52.362;10.012;2022-12-18T05:21:40;1.50;;;1.20;;
5519;SDS011;2782;52.362;10.012;2022-12-18T05:22:42;2.50;;;1.40;;
5519;SDS011;2782;52.362;10.012;2022-12-18T05:23:43;1.30;;;1.20;;
5519;SDS011;2782;52.362;10.012;2022-12-18T05:24:44;1.75;;;1.65;;
5519;SDS011;2782;52.362;10.012;2022-12-18T05:25:46;1.70;;;1.60;;
5519;SDS011;2782;52.362;10.012;2022-12-18T05:26:51;1.52;;;1.42;;
5519;SDS011;2782;52.362;10.012;2022-12-18T05:27:52;2.60;;;1.70;;
5519;SDS011;2782;52.362;10.012;2022-12-18T05:28:54;1.67;;;1.50;;
5519;SDS011;2782;52.362;10.012;2022-12-18T05:29:54;1.20;;;1.10;;
5519;SDS011;2782;52.362;10.012;2022-12-18T05:30:57;3.30;;;1.70;;
5519;SDS011;2782;52.362;10.012;2022-12-18T05:32:01;1.70;;;1.60;;
5519;SDS011;2782;52.362;10.012;2022-12-18T05:33:02;1.15;;;1.05;;
5519;SDS011;2782;52.362;10.012;2022-12-18T05:34:04;2.22;;;1.70;;
5519;SDS011;2782;52.362;10.012;2022-12-18T05:35:05;3.83;;;1.23;;
5519;SDS011;2782;52.362;10.012;2022-12-18T05:36:09;1.65;;;1.15;;
5519;SDS011;2782;52.362;10.012;2022-12-18T05:37:09;2.42;;;1.42;;
5519;SDS011;2782;52.362;10.012;2022-12-18T05:38:11;1.80;;;1.52;;
5519;SDS011;2782;52.362;10.012;2022-12-18T05:39:12;1.40;;;1.30;;
5519;SDS011;2782;52.362;10.012;2022-12-18T05:40:13;1.30;;;1.20;;
5519;SDS011;2782;52.362;10.012;2022-12-18T05:41:14;1.10;;;0.90;;
5519;SDS011;2782;52.362;10.012;2022-12-18T05:42:16;1.55;;;1.45;;
5519;SDS011;2782;52.362;10.012;2022-12-18T05:43:17;1.40;;;1.27;;
5519;SDS011;2782;52.362;10.012;2022-12-18T05:44:19;2.90;;;1.40;;
5519;SDS011;2782;52.362;10.012;2022-12-18T05:45:19;1.30;;;1.10;;
5519;SDS011;2782;52.362;10.012;2022-12-18T05:46:21;2.10;;;1.40;;
5519;SDS011;2782;52.362;10.012;2022-12-18T05:47:23;1.30;;;1.20;;
5519;SDS011;2782;52.362;10.012;2022-12-18T05:48:25;2.72;;;1.40;;
5519;SDS011;2782;52.362;10.012;2022-12-18T05:49:26;1.10;;;1.00;;
5519;SDS011;2782;52.362;10.012;2022-12-18T05:50:27;2.00;;;1.35;;
5519;SDS011;2782;52.362;10.012;2022-12-18T05:51:28;1.30;;;1.10;;
5519;SDS011;2782;52.362;10.012;2022-12-18T05:52:30;1.20;;;1.10;;
5519;SDS011;2782;52.362;10.012;2022-12-18T05:53:31;2.53;;;1.70;;
5519;SDS011;2782;52.362;10.012;2022-12-18T05:54:32;1.42;;;1.20;;
5519;SDS011;2782;52.362;10.012;2022-12-18T05:55:33;1.50;;;1.40;;
5519;SDS011;2782;52.362;10.012;2022-12-18T05:56:36;0.82;;;0.82;;
5519;SDS011;2782;52.362;10.012;2022-12-18T05:57:36;1.43;;;1.20;;
5519;SDS011;2782;52.362;10.012;2022-12-18T05:58:38;1.55;;;1.40;;
5519;SDS011;2782;52.362;10.012;2022-12-18T05:59:39;1.75;;;1.50;;
5519;SDS011;2782;52.362;10.012;2022-12-18T06:00:42;1.15;;;1.02;;
5519;SDS011;2782;52.362;10.012;2022-12-18T06:01:45;1.65;;;1.23;;
5519;SDS011;2782;52.362;10.012;2022-12-18T06:02:48;1.27;;;1.17;;
5519;SDS011;2782;52.362;10.012;2022-12-18T06:03:49;1.85;;;1.13;;
5519;SDS011;2782;52.362;10.012;2022-12-18T06:04:51;1.10;;;0.95;;
5519;SDS011;2782;52.362;10.012;2022-12-18T06:05:51;1.37;;;1.17;;
5519;SDS011;2782;52.362;10.012;2022-12-18T06:06:53;1.60;;;1.50;;
5519;SDS011;2782;52.362;10.012;2022-12-18T06:07:54;1.63;;;1.23;;
5519;SDS011;2782;52.362;10.012;2022-12-18T06:08:56;1.17;;;1.00;;
5519;SDS011;2782;52.362;10.012;2022-12-18T06:09:57;1.40;;;1.30;;
5519;SDS011;2782;52.362;10.012;2022-12-18T06:10:58;1.30;;;1.20;;
5519;SDS011;2782;52.362;10.012;2022-12-18T06:11:59;1.50;;;1.30;;
5519;SDS011;2782;52.362;10.012;2022-12-18T06:13:01;1.90;;;1.40;;
5519;SDS011;2782;52.362;10.012;2022-12-18T06:14:02;1.23;;;1.15;;
5519;SDS011;2782;52.362;10.012;2022-12-18T06:15:05;1.10;;;1.00;;
5519;SDS011;2782;52.362;10.012;2022-12-18T06:16:07;1.45;;;1.35;;
5519;SDS011;2782;52.362;10.012;2022-12-18T06:17:08;1.10;;;1.00;;
5519;SDS011;2782;52.362;10.012;2022-12-18T06:18:11;3.00;;;1.67;;
5519;SDS011;2782;52.362;10.012;2022-12-18T06:19:14;2.55;;;1.25;;
5519;SDS011;2782;52.362;10.012;2022-12-18T06:20:15;2.03;;;1.23;;
5519;SDS011;2782;52.362;10.012;2022-12-18T06:21:17;1.98;;;1.70;;
5519;SDS011;2782;52.362;10.012;2022-12-18T06:22:18;2.43;;;1.33;;
5519;SDS011;2782;52.362;10.012;2022-12-18T06:23:19;1.40;;;1.30;;
5519;SDS011;2782;52.362;10.012;2022-12-18T06:24:20;1.57;;;1.23;;
5519;SDS011;2782;52.362;10.012;2022-12-18T06:25:22;1.38;;;1.27;;
5519;SDS011;2782;52.362;10.012;2022-12-18T06:26:23;1.30;;;1.20;;
5519;SDS011;2782;52.362;10.012;2022-12-18T06:27:25;1.65;;;1.55;;
5519;SDS011;2782;52.362;10.012;2022-12-18T06:28:26;1.70;;;1.30;;
5519;SDS011;2782;52.362;10.012;2022-12-18T06:29:27;1.67;;;1.30;;
5519;SDS011;2782;52.362;10.012;2022-12-18T06:30:29;1.50;;;1.40;;